sensor_id;sensor_type;location;lat;lon;timestamp;P1;P2;P0
45990;PMS5003;31721;41.740;-88.000;2023-07-08T00:01:07;17;14;
45990;PMS5003;31721;41.740;-88.000;2023-07-08T00:03:37;17;16;
45990;PMS5003;31721;41.740;-88.000;2023-07-08T00:06:07;15;13;
45990;PMS5003;31721;41.740;-88.000;2023-07-08T00:08:40;20;19;
45990;PMS5003;31721;41.740;-88.000;2023-07-08T00:11:08;13;13;
45990;PMS5003;31721;41.740;-88.000;2023-07-08T00:13:37;17;15;
45990;PMS5003;31721;41.740;-88.000;2023-07-08T00:16:07;17;13;
45990;PMS5003;31721;41.740;-88.000;2023-07-08T00:18:37;15;14;
45990;PMS5003;31721;41.740;-88.000;2023-07-08T00:21:07;13;9;
45990;PMS5003;31721;41.740;-88.000;2023-07-08T00:23:37;18;14;
45990;PMS5003;31721;41.740;-88.000;2023-07-08T00:26:08;14;13;
45990;PMS5003;31721;41.740;-88.000;2023-07-08T00:28:38;11;11;
45990;PMS5003;31721;41.740;-88.000;2023-07-08T00:31:08;11;10;
45990;PMS5003;31721;41.740;-88.000;2023-07-08T00:33:37;16;15;
45990;PMS5003;31721;41.740;-88.000;2023-07-08T00:36:08;11;9;
45990;PMS5003;31721;41.740;-88.000;2023-07-08T00:38:38;13;11;
45990;PMS5003;31721;41.740;-88.000;2023-07-08T00:41:07;10;10;
45990;PMS5003;31721;41.740;-88.000;2023-07-08T00:43:39;8;8;
45990;PMS5003;31721;41.740;-88.000;2023-07-08T00:46:13;8;8;
45990;PMS5003;31721;41.740;-88.000;2023-07-08T00:48:55;9;9;
45990;PMS5003;31721;41.740;-88.000;2023-07-08T00:51:30;13;12;
45990;PMS5003;31721;41.740;-88.000;2023-07-08T00:53:57;12;9;
45990;PMS5003;31721;41.740;-88.000;2023-07-08T00:56:29;14;14;
45990;PMS5003;31721;41.740;-88.000;2023-07-08T00:59:00;8;8;
45990;PMS5003;31721;41.740;-88.000;2023-07-08T01:01:33;10;7;
45990;PMS5003;31721;41.740;-88.000;2023-07-08T01:04:06;13;11;
45990;PMS5003;31721;41.740;-88.000;2023-07-08T01:06:38;14;13;
45990;PMS5003;31721;41.740;-88.000;2023-07-08T01:09:09;10;8;
45990;PMS5003;31721;41.740;-88.000;2023-07-08T01:11:40;9;8;
45990;PMS5003;31721;41.740;-88.000;2023-07-08T01:14:09;8;8;
45990;PMS5003;31721;41.740;-88.000;2023-07-08T01:16:41;8;8;
45990;PMS5003;31721;41.740;-88.000;2023-07-08T01:19:12;11;10;
45990;PMS5003;31721;41.740;-88.000;2023-07-08T01:21:45;9;8;
45990;PMS5003;31721;41.740;-88.000;2023-07-08T01:24:13;7;7;
45990;PMS5003;31721;41.740;-88.000;2023-07-08T01:26:43;9;9;
45990;PMS5003;31721;41.740;-88.000;2023-07-08T01:29:12;11;8;
45990;PMS5003;31721;41.740;-88.000;2023-07-08T01:31:40;11;8;
45990;PMS5003;31721;41.740;-88.000;2023-07-08T01:34:08;12;11;
45990;PMS5003;31721;41.740;-88.000;2023-07-08T01:36:38;9;9;
45990;PMS5003;31721;41.740;-88.000;2023-07-08T01:39:12;11;6;
45990;PMS5003;31721;41.740;-88.000;2023-07-08T01:41:42;8;8;
45990;PMS5003;31721;41.740;-88.000;2023-07-08T01:44:19;8;7;
45990;PMS5003;31721;41.740;-88.000;2023-07-08T01:46:49;9;8;
45990;PMS5003;31721;41.740;-88.000;2023-07-08T01:49:19;11;8;
45990;PMS5003;31721;41.740;-88.000;2023-07-08T01:51:48;13;13;
45990;PMS5003;31721;41.740;-88.000;2023-07-08T01:54:17;11;10;
45990;PMS5003;31721;41.740;-88.000;2023-07-08T01:56:45;10;9;
45990;PMS5003;31721;41.740;-88.000;2023-07-08T01:59:12;19;18;
45990;PMS5003;31721;41.740;-88.000;2023-07-08T02:01:40;13;13;
45990;PMS5003;31721;41.740;-88.000;2023-07-08T02:04:08;15;11;
45990;PMS5003;31721;41.740;-88.000;2023-07-08T02:06:35;15;13;
45990;PMS5003;31721;41.740;-88.000;2023-07-08T02:09:03;14;13;
45990;PMS5003;31721;41.740;-88.000;2023-07-08T02:11:31;18;13;
45990;PMS5003;31721;41.740;-88.000;2023-07-08T02:13:58;13;13;
45990;PMS5003;31721;41.740;-88.000;2023-07-08T02:16:26;16;12;
45990;PMS5003;31721;41.740;-88.000;2023-07-08T02:18:54;11;10;
45990;PMS5003;31721;41.740;-88.000;2023-07-08T02:21:21;13;13;
45990;PMS5003;31721;41.740;-88.000;2023-07-08T02:23:49;14;14;
45990;PMS5003;31721;41.740;-88.000;2023-07-08T02:26:19;23;16;
45990;PMS5003;31721;41.740;-88.000;2023-07-08T02:28:46;13;10;
45990;PMS5003;31721;41.740;-88.000;2023-07-08T02:31:14;15;10;
45990;PMS5003;31721;41.740;-88.000;2023-07-08T02:33:41;17;16;
45990;PMS5003;31721;41.740;-88.000;2023-07-08T02:36:09;10;10;
45990;PMS5003;31721;41.740;-88.000;2023-07-08T02:38:37;15;13;
45990;PMS5003;31721;41.740;-88.000;2023-07-08T02:41:05;15;14;
45990;PMS5003;31721;41.740;-88.000;2023-07-08T02:43:33;12;12;
45990;PMS5003;31721;41.740;-88.000;2023-07-08T02:46:00;9;9;
45990;PMS5003;31721;41.740;-88.000;2023-07-08T02:48:28;16;14;
45990;PMS5003;31721;41.740;-88.000;2023-07-08T02:50:58;15;13;
45990;PMS5003;31721;41.740;-88.000;2023-07-08T02:53:26;21;20;
45990;PMS5003;31721;41.740;-88.000;2023-07-08T02:55:55;13;11;
45990;PMS5003;31721;41.740;-88.000;2023-07-08T02:58:23;14;13;
45990;PMS5003;31721;41.740;-88.000;2023-07-08T03:00:51;19;19;
45990;PMS5003;31721;41.740;-88.000;2023-07-08T03:03:20;25;21;
45990;PMS5003;31721;41.740;-88.000;2023-07-08T03:05:55;18;16;
45990;PMS5003;31721;41.740;-88.000;2023-07-08T03:08:23;16;14;
45990;PMS5003;31721;41.740;-88.000;2023-07-08T03:10:54;15;15;
45990;PMS5003;31721;41.740;-88.000;2023-07-08T03:13:23;23;21;
45990;PMS5003;31721;41.740;-88.000;2023-07-08T03:15:51;18;15;
45990;PMS5003;31721;41.740;-88.000;2023-07-08T03:18:19;11;11;
45990;PMS5003;31721;41.740;-88.000;2023-07-08T03:20:48;11;11;
45990;PMS5003;31721;41.740;-88.000;2023-07-08T03:23:16;15;12;
45990;PMS5003;31721;41.740;-88.000;2023-07-08T03:25:43;19;16;
45990;PMS5003;31721;41.740;-88.000;2023-07-08T03:28:11;13;12;
45990;PMS5003;31721;41.740;-88.000;2023-07-08T03:30:38;18;13;
45990;PMS5003;31721;41.740;-88.000;2023-07-08T03:33:06;11;11;
45990;PMS5003;31721;41.740;-88.000;2023-07-08T03:35:35;20;16;
45990;PMS5003;31721;41.740;-88.000;2023-07-08T03:38:03;14;13;
45990;PMS5003;31721;41.740;-88.000;2023-07-08T03:40:32;19;16;
45990;PMS5003;31721;41.740;-88.000;2023-07-08T03:42:59;13;10;
45990;PMS5003;31721;41.740;-88.000;2023-07-08T03:45:27;11;10;
45990;PMS5003;31721;41.740;-88.000;2023-07-08T03:47:55;14;12;
45990;PMS5003;31721;41.740;-88.000;2023-07-08T03:50:23;17;14;
45990;PMS5003;31721;41.740;-88.000;2023-07-08T03:52:53;17;13;
45990;PMS5003;31721;41.740;-88.000;2023-07-08T03:55:22;20;19;
45990;PMS5003;31721;41.740;-88.000;2023-07-08T03:57:50;16;16;
45990;PMS5003;31721;41.740;-88.000;2023-07-08T04:00:17;13;13;
45990;PMS5003;31721;41.740;-88.000;2023-07-08T04:02:45;16;16;
45990;PMS5003;31721;41.740;-88.000;2023-07-08T04:05:14;19;17;
45990;PMS5003;31721;41.740;-88.000;2023-07-08T04:07:42;22;21;
45990;PMS5003;31721;41.740;-88.000;2023-07-08T04:10:10;17;15;
45990;PMS5003;31721;41.740;-88.000;2023-07-08T04:12:39;18;17;
45990;PMS5003;31721;41.740;-88.000;2023-07-08T04:15:07;19;18;
45990;PMS5003;31721;41.740;-88.000;2023-07-08T04:17:37;17;13;
45990;PMS5003;31721;41.740;-88.000;2023-07-08T04:20:10;17;14;
45990;PMS5003;31721;41.740;-88.000;2023-07-08T04:22:39;16;16;
45990;PMS5003;31721;41.740;-88.000;2023-07-08T04:25:07;15;15;
45990;PMS5003;31721;41.740;-88.000;2023-07-08T04:27:36;14;11;
45990;PMS5003;31721;41.740;-88.000;2023-07-08T04:30:04;15;11;
45990;PMS5003;31721;41.740;-88.000;2023-07-08T04:32:33;18;16;
45990;PMS5003;31721;41.740;-88.000;2023-07-08T04:35:01;17;15;
45990;PMS5003;31721;41.740;-88.000;2023-07-08T04:37:30;15;15;
45990;PMS5003;31721;41.740;-88.000;2023-07-08T04:39:57;16;13;
45990;PMS5003;31721;41.740;-88.000;2023-07-08T04:42:25;10;10;
45990;PMS5003;31721;41.740;-88.000;2023-07-08T04:44:53;13;13;
45990;PMS5003;31721;41.740;-88.000;2023-07-08T04:47:21;17;14;
45990;PMS5003;31721;41.740;-88.000;2023-07-08T04:49:48;15;15;
45990;PMS5003;31721;41.740;-88.000;2023-07-08T04:52:15;14;13;
45990;PMS5003;31721;41.740;-88.000;2023-07-08T04:54:43;15;14;
45990;PMS5003;31721;41.740;-88.000;2023-07-08T04:57:11;16;16;
45990;PMS5003;31721;41.740;-88.000;2023-07-08T04:59:38;18;16;
45990;PMS5003;31721;41.740;-88.000;2023-07-08T05:02:06;17;15;
45990;PMS5003;31721;41.740;-88.000;2023-07-08T05:04:34;19;17;
45990;PMS5003;31721;41.740;-88.000;2023-07-08T05:07:01;16;14;
45990;PMS5003;31721;41.740;-88.000;2023-07-08T05:09:29;12;11;
45990;PMS5003;31721;41.740;-88.000;2023-07-08T05:11:57;16;13;
45990;PMS5003;31721;41.740;-88.000;2023-07-08T05:14:25;15;15;
45990;PMS5003;31721;41.740;-88.000;2023-07-08T05:16:53;19;16;
45990;PMS5003;31721;41.740;-88.000;2023-07-08T05:19:22;16;15;
45990;PMS5003;31721;41.740;-88.000;2023-07-08T05:21:50;12;11;
45990;PMS5003;31721;41.740;-88.000;2023-07-08T05:24:18;20;15;
45990;PMS5003;31721;41.740;-88.000;2023-07-08T05:26:46;16;11;
45990;PMS5003;31721;41.740;-88.000;2023-07-08T05:29:13;11;10;
45990;PMS5003;31721;41.740;-88.000;2023-07-08T05:31:41;12;12;
45990;PMS5003;31721;41.740;-88.000;2023-07-08T05:34:08;13;13;
45990;PMS5003;31721;41.740;-88.000;2023-07-08T05:36:36;11;10;
45990;PMS5003;31721;41.740;-88.000;2023-07-08T05:39:03;14;13;
45990;PMS5003;31721;41.740;-88.000;2023-07-08T05:41:32;13;11;
45990;PMS5003;31721;41.740;-88.000;2023-07-08T05:43:59;13;13;
45990;PMS5003;31721;41.740;-88.000;2023-07-08T05:46:27;13;12;
45990;PMS5003;31721;41.740;-88.000;2023-07-08T05:48:55;18;15;
45990;PMS5003;31721;41.740;-88.000;2023-07-08T05:51:23;14;12;
45990;PMS5003;31721;41.740;-88.000;2023-07-08T05:53:51;14;12;
45990;PMS5003;31721;41.740;-88.000;2023-07-08T05:56:18;17;15;
45990;PMS5003;31721;41.740;-88.000;2023-07-08T05:58:46;13;12;
45990;PMS5003;31721;41.740;-88.000;2023-07-08T06:01:14;14;13;
45990;PMS5003;31721;41.740;-88.000;2023-07-08T06:03:42;18;17;
45990;PMS5003;31721;41.740;-88.000;2023-07-08T06:06:09;15;13;
45990;PMS5003;31721;41.740;-88.000;2023-07-08T06:08:37;15;13;
45990;PMS5003;31721;41.740;-88.000;2023-07-08T06:11:05;16;16;
45990;PMS5003;31721;41.740;-88.000;2023-07-08T06:13:33;13;9;
45990;PMS5003;31721;41.740;-88.000;2023-07-08T06:16:00;8;8;
45990;PMS5003;31721;41.740;-88.000;2023-07-08T06:18:28;17;14;
45990;PMS5003;31721;41.740;-88.000;2023-07-08T06:20:56;13;12;
45990;PMS5003;31721;41.740;-88.000;2023-07-08T06:23:25;11;11;
45990;PMS5003;31721;41.740;-88.000;2023-07-08T06:25:53;15;14;
45990;PMS5003;31721;41.740;-88.000;2023-07-08T06:28:21;16;11;
45990;PMS5003;31721;41.740;-88.000;2023-07-08T06:30:48;16;15;
45990;PMS5003;31721;41.740;-88.000;2023-07-08T06:33:17;12;10;
45990;PMS5003;31721;41.740;-88.000;2023-07-08T06:35:44;15;13;
45990;PMS5003;31721;41.740;-88.000;2023-07-08T06:38:12;10;9;
45990;PMS5003;31721;41.740;-88.000;2023-07-08T06:40:39;11;11;
45990;PMS5003;31721;41.740;-88.000;2023-07-08T06:43:07;11;11;
45990;PMS5003;31721;41.740;-88.000;2023-07-08T06:45:34;16;14;
45990;PMS5003;31721;41.740;-88.000;2023-07-08T06:48:02;17;13;
45990;PMS5003;31721;41.740;-88.000;2023-07-08T06:50:30;14;12;
45990;PMS5003;31721;41.740;-88.000;2023-07-08T06:52:58;18;16;
45990;PMS5003;31721;41.740;-88.000;2023-07-08T06:55:26;14;13;
45990;PMS5003;31721;41.740;-88.000;2023-07-08T06:57:54;17;14;
45990;PMS5003;31721;41.740;-88.000;2023-07-08T07:00:21;17;15;
45990;PMS5003;31721;41.740;-88.000;2023-07-08T07:02:49;15;14;
45990;PMS5003;31721;41.740;-88.000;2023-07-08T07:05:16;15;13;
45990;PMS5003;31721;41.740;-88.000;2023-07-08T07:07:44;18;16;
45990;PMS5003;31721;41.740;-88.000;2023-07-08T07:10:12;15;11;
45990;PMS5003;31721;41.740;-88.000;2023-07-08T07:12:40;17;15;
45990;PMS5003;31721;41.740;-88.000;2023-07-08T07:15:07;15;13;
45990;PMS5003;31721;41.740;-88.000;2023-07-08T07:17:35;15;15;
45990;PMS5003;31721;41.740;-88.000;2023-07-08T07:20:04;21;19;
45990;PMS5003;31721;41.740;-88.000;2023-07-08T07:22:32;16;15;
45990;PMS5003;31721;41.740;-88.000;2023-07-08T07:25:00;15;15;
45990;PMS5003;31721;41.740;-88.000;2023-07-08T07:27:27;22;19;
45990;PMS5003;31721;41.740;-88.000;2023-07-08T07:29:55;24;19;
45990;PMS5003;31721;41.740;-88.000;2023-07-08T07:32:23;17;16;
45990;PMS5003;31721;41.740;-88.000;2023-07-08T07:34:51;17;16;
45990;PMS5003;31721;41.740;-88.000;2023-07-08T07:37:20;15;14;
45990;PMS5003;31721;41.740;-88.000;2023-07-08T07:39:48;20;17;
45990;PMS5003;31721;41.740;-88.000;2023-07-08T07:42:16;20;18;
45990;PMS5003;31721;41.740;-88.000;2023-07-08T07:44:45;13;13;
45990;PMS5003;31721;41.740;-88.000;2023-07-08T07:47:13;18;17;
45990;PMS5003;31721;41.740;-88.000;2023-07-08T07:49:41;16;16;
45990;PMS5003;31721;41.740;-88.000;2023-07-08T07:52:09;19;18;
45990;PMS5003;31721;41.740;-88.000;2023-07-08T07:54:36;15;12;
45990;PMS5003;31721;41.740;-88.000;2023-07-08T07:57:04;20;19;
45990;PMS5003;31721;41.740;-88.000;2023-07-08T07:59:32;16;15;
45990;PMS5003;31721;41.740;-88.000;2023-07-08T08:02:00;13;13;
45990;PMS5003;31721;41.740;-88.000;2023-07-08T08:04:28;16;15;
45990;PMS5003;31721;41.740;-88.000;2023-07-08T08:06:56;14;12;
45990;PMS5003;31721;41.740;-88.000;2023-07-08T08:09:24;18;14;
45990;PMS5003;31721;41.740;-88.000;2023-07-08T08:11:51;14;14;
45990;PMS5003;31721;41.740;-88.000;2023-07-08T08:14:19;22;16;
45990;PMS5003;31721;41.740;-88.000;2023-07-08T08:16:46;20;17;
45990;PMS5003;31721;41.740;-88.000;2023-07-08T08:19:14;21;20;
45990;PMS5003;31721;41.740;-88.000;2023-07-08T08:21:42;15;14;
45990;PMS5003;31721;41.740;-88.000;2023-07-08T08:24:10;22;22;
45990;PMS5003;31721;41.740;-88.000;2023-07-08T08:26:38;20;19;
45990;PMS5003;31721;41.740;-88.000;2023-07-08T08:29:05;20;17;
45990;PMS5003;31721;41.740;-88.000;2023-07-08T08:31:33;27;24;
45990;PMS5003;31721;41.740;-88.000;2023-07-08T08:34:00;25;20;
45990;PMS5003;31721;41.740;-88.000;2023-07-08T08:36:28;27;21;
45990;PMS5003;31721;41.740;-88.000;2023-07-08T08:38:56;27;26;
45990;PMS5003;31721;41.740;-88.000;2023-07-08T08:41:27;23;23;
45990;PMS5003;31721;41.740;-88.000;2023-07-08T08:43:58;21;19;
45990;PMS5003;31721;41.740;-88.000;2023-07-08T08:46:29;23;22;
45990;PMS5003;31721;41.740;-88.000;2023-07-08T08:49:04;20;18;
45990;PMS5003;31721;41.740;-88.000;2023-07-08T08:51:40;20;20;
45990;PMS5003;31721;41.740;-88.000;2023-07-08T08:54:08;35;32;
45990;PMS5003;31721;41.740;-88.000;2023-07-08T08:56:38;20;18;
45990;PMS5003;31721;41.740;-88.000;2023-07-08T08:59:12;25;22;
45990;PMS5003;31721;41.740;-88.000;2023-07-08T09:01:51;26;26;
45990;PMS5003;31721;41.740;-88.000;2023-07-08T09:04:20;32;29;
45990;PMS5003;31721;41.740;-88.000;2023-07-08T09:07:00;33;25;
45990;PMS5003;31721;41.740;-88.000;2023-07-08T09:09:35;21;17;
45990;PMS5003;31721;41.740;-88.000;2023-07-08T09:12:16;26;24;
45990;PMS5003;31721;41.740;-88.000;2023-07-08T09:14:48;19;19;
45990;PMS5003;31721;41.740;-88.000;2023-07-08T09:17:18;19;17;
45990;PMS5003;31721;41.740;-88.000;2023-07-08T09:19:50;23;22;
45990;PMS5003;31721;41.740;-88.000;2023-07-08T09:22:28;20;15;
45990;PMS5003;31721;41.740;-88.000;2023-07-08T09:25:03;17;16;
45990;PMS5003;31721;41.740;-88.000;2023-07-08T09:27:39;26;23;
45990;PMS5003;31721;41.740;-88.000;2023-07-08T09:30:08;24;21;
45990;PMS5003;31721;41.740;-88.000;2023-07-08T09:32:40;25;21;
45990;PMS5003;31721;41.740;-88.000;2023-07-08T09:35:08;25;23;
45990;PMS5003;31721;41.740;-88.000;2023-07-08T09:37:45;25;23;
45990;PMS5003;31721;41.740;-88.000;2023-07-08T09:40:15;22;17;
45990;PMS5003;31721;41.740;-88.000;2023-07-08T09:42:46;24;24;
45990;PMS5003;31721;41.740;-88.000;2023-07-08T09:45:18;27;23;
45990;PMS5003;31721;41.740;-88.000;2023-07-08T09:47:51;24;20;
45990;PMS5003;31721;41.740;-88.000;2023-07-08T09:50:21;27;18;
45990;PMS5003;31721;41.740;-88.000;2023-07-08T09:52:54;16;16;
45990;PMS5003;31721;41.740;-88.000;2023-07-08T09:55:23;22;21;
45990;PMS5003;31721;41.740;-88.000;2023-07-08T09:57:51;17;17;
45990;PMS5003;31721;41.740;-88.000;2023-07-08T10:00:26;28;27;
45990;PMS5003;31721;41.740;-88.000;2023-07-08T10:02:56;31;28;
45990;PMS5003;31721;41.740;-88.000;2023-07-08T10:05:27;25;22;
45990;PMS5003;31721;41.740;-88.000;2023-07-08T10:08:00;44;40;
45990;PMS5003;31721;41.740;-88.000;2023-07-08T10:10:37;18;18;
45990;PMS5003;31721;41.740;-88.000;2023-07-08T10:13:06;26;23;
45990;PMS5003;31721;41.740;-88.000;2023-07-08T10:15:45;30;30;
45990;PMS5003;31721;41.740;-88.000;2023-07-08T10:18:17;34;33;
45990;PMS5003;31721;41.740;-88.000;2023-07-08T10:20:54;25;23;
45990;PMS5003;31721;41.740;-88.000;2023-07-08T10:23:34;24;23;
45990;PMS5003;31721;41.740;-88.000;2023-07-08T10:26:24;36;33;
45990;PMS5003;31721;41.740;-88.000;2023-07-08T10:28:58;25;24;
45990;PMS5003;31721;41.740;-88.000;2023-07-08T10:31:40;54;51;
45990;PMS5003;31721;41.740;-88.000;2023-07-08T10:34:18;23;23;
45990;PMS5003;31721;41.740;-88.000;2023-07-08T10:37:01;31;31;
45990;PMS5003;31721;41.740;-88.000;2023-07-08T10:39:43;23;23;
45990;PMS5003;31721;41.740;-88.000;2023-07-08T10:42:27;29;26;
45990;PMS5003;31721;41.740;-88.000;2023-07-08T10:45:09;37;33;
45990;PMS5003;31721;41.740;-88.000;2023-07-08T10:47:45;26;24;
45990;PMS5003;31721;41.740;-88.000;2023-07-08T10:50:29;30;29;
45990;PMS5003;31721;41.740;-88.000;2023-07-08T10:53:17;22;21;
45990;PMS5003;31721;41.740;-88.000;2023-07-08T10:55:57;31;30;
45990;PMS5003;31721;41.740;-88.000;2023-07-08T10:58:35;29;27;
45990;PMS5003;31721;41.740;-88.000;2023-07-08T11:01:16;25;24;
45990;PMS5003;31721;41.740;-88.000;2023-07-08T11:03:56;56;53;
45990;PMS5003;31721;41.740;-88.000;2023-07-08T11:06:48;30;25;
45990;PMS5003;31721;41.740;-88.000;2023-07-08T11:09:22;40;39;
45990;PMS5003;31721;41.740;-88.000;2023-07-08T11:11:55;26;23;
45990;PMS5003;31721;41.740;-88.000;2023-07-08T11:14:29;62;60;
45990;PMS5003;31721;41.740;-88.000;2023-07-08T11:17:04;61;60;
45990;PMS5003;31721;41.740;-88.000;2023-07-08T11:19:38;23;20;
45990;PMS5003;31721;41.740;-88.000;2023-07-08T11:22:09;23;18;
45990;PMS5003;31721;41.740;-88.000;2023-07-08T11:24:40;46;46;
45990;PMS5003;31721;41.740;-88.000;2023-07-08T11:27:13;33;31;
45990;PMS5003;31721;41.740;-88.000;2023-07-08T11:29:46;23;23;
45990;PMS5003;31721;41.740;-88.000;2023-07-08T11:32:18;43;36;
45990;PMS5003;31721;41.740;-88.000;2023-07-08T11:34:48;24;22;
45990;PMS5003;31721;41.740;-88.000;2023-07-08T11:37:18;26;22;
45990;PMS5003;31721;41.740;-88.000;2023-07-08T11:39:53;23;23;
45990;PMS5003;31721;41.740;-88.000;2023-07-08T11:42:23;32;28;
45990;PMS5003;31721;41.740;-88.000;2023-07-08T11:45:00;22;18;
45990;PMS5003;31721;41.740;-88.000;2023-07-08T11:47:35;28;28;
45990;PMS5003;31721;41.740;-88.000;2023-07-08T11:50:11;21;17;
45990;PMS5003;31721;41.740;-88.000;2023-07-08T11:52:54;27;27;
45990;PMS5003;31721;41.740;-88.000;2023-07-08T11:55:37;23;20;
45990;PMS5003;31721;41.740;-88.000;2023-07-08T11:58:13;17;16;
45990;PMS5003;31721;41.740;-88.000;2023-07-08T12:00:51;25;22;
45990;PMS5003;31721;41.740;-88.000;2023-07-08T12:03:28;20;18;
45990;PMS5003;31721;41.740;-88.000;2023-07-08T12:06:00;21;21;
45990;PMS5003;31721;41.740;-88.000;2023-07-08T12:08:33;21;20;
45990;PMS5003;31721;41.740;-88.000;2023-07-08T12:11:03;27;26;
45990;PMS5003;31721;41.740;-88.000;2023-07-08T12:13:38;24;24;
45990;PMS5003;31721;41.740;-88.000;2023-07-08T12:16:08;27;27;
45990;PMS5003;31721;41.740;-88.000;2023-07-08T12:18:38;26;24;
45990;PMS5003;31721;41.740;-88.000;2023-07-08T12:21:07;30;26;
45990;PMS5003;31721;41.740;-88.000;2023-07-08T12:23:35;26;25;
45990;PMS5003;31721;41.740;-88.000;2023-07-08T12:26:02;24;24;
45990;PMS5003;31721;41.740;-88.000;2023-07-08T12:28:31;24;23;
45990;PMS5003;31721;41.740;-88.000;2023-07-08T12:31:04;56;52;
45990;PMS5003;31721;41.740;-88.000;2023-07-08T12:33:40;39;38;
45990;PMS5003;31721;41.740;-88.000;2023-07-08T12:36:09;23;23;
45990;PMS5003;31721;41.740;-88.000;2023-07-08T12:38:44;22;21;
45990;PMS5003;31721;41.740;-88.000;2023-07-08T12:41:14;12;9;
45990;PMS5003;31721;41.740;-88.000;2023-07-08T12:43:44;11;11;
45990;PMS5003;31721;41.740;-88.000;2023-07-08T12:46:13;8;8;
45990;PMS5003;31721;41.740;-88.000;2023-07-08T12:48:43;11;9;
45990;PMS5003;31721;41.740;-88.000;2023-07-08T12:51:12;35;33;
45990;PMS5003;31721;41.740;-88.000;2023-07-08T12:53:42;35;32;
45990;PMS5003;31721;41.740;-88.000;2023-07-08T12:56:10;31;27;
45990;PMS5003;31721;41.740;-88.000;2023-07-08T12:58:39;11;11;
45990;PMS5003;31721;41.740;-88.000;2023-07-08T13:01:10;35;34;
45990;PMS5003;31721;41.740;-88.000;2023-07-08T13:03:44;15;12;
45990;PMS5003;31721;41.740;-88.000;2023-07-08T13:06:15;11;9;
45990;PMS5003;31721;41.740;-88.000;2023-07-08T13:08:45;32;27;
45990;PMS5003;31721;41.740;-88.000;2023-07-08T13:11:13;11;10;
45990;PMS5003;31721;41.740;-88.000;2023-07-08T13:13:45;20;19;
45990;PMS5003;31721;41.740;-88.000;2023-07-08T13:16:16;65;62;
45990;PMS5003;31721;41.740;-88.000;2023-07-08T13:18:44;22;18;
45990;PMS5003;31721;41.740;-88.000;2023-07-08T13:21:13;19;17;
45990;PMS5003;31721;41.740;-88.000;2023-07-08T13:23:42;40;35;
45990;PMS5003;31721;41.740;-88.000;2023-07-08T13:26:13;23;23;
45990;PMS5003;31721;41.740;-88.000;2023-07-08T13:28:43;34;32;
45990;PMS5003;31721;41.740;-88.000;2023-07-08T13:31:13;43;43;
45990;PMS5003;31721;41.740;-88.000;2023-07-08T13:33:45;27;26;
45990;PMS5003;31721;41.740;-88.000;2023-07-08T13:36:16;21;19;
45990;PMS5003;31721;41.740;-88.000;2023-07-08T13:38:45;22;20;
45990;PMS5003;31721;41.740;-88.000;2023-07-08T13:41:17;27;26;
45990;PMS5003;31721;41.740;-88.000;2023-07-08T13:43:48;51;49;
45990;PMS5003;31721;41.740;-88.000;2023-07-08T13:46:34;21;21;
45990;PMS5003;31721;41.740;-88.000;2023-07-08T13:49:09;48;46;
45990;PMS5003;31721;41.740;-88.000;2023-07-08T13:51:39;21;18;
45990;PMS5003;31721;41.740;-88.000;2023-07-08T13:54:13;25;23;
45990;PMS5003;31721;41.740;-88.000;2023-07-08T13:56:46;27;20;
45990;PMS5003;31721;41.740;-88.000;2023-07-08T13:59:16;25;22;
45990;PMS5003;31721;41.740;-88.000;2023-07-08T14:01:48;31;30;
45990;PMS5003;31721;41.740;-88.000;2023-07-08T14:04:19;30;28;
45990;PMS5003;31721;41.740;-88.000;2023-07-08T14:06:48;19;19;
45990;PMS5003;31721;41.740;-88.000;2023-07-08T14:09:17;14;12;
45990;PMS5003;31721;41.740;-88.000;2023-07-08T14:11:46;14;14;
45990;PMS5003;31721;41.740;-88.000;2023-07-08T14:14:15;12;11;
45990;PMS5003;31721;41.740;-88.000;2023-07-08T14:16:44;17;16;
45990;PMS5003;31721;41.740;-88.000;2023-07-08T14:19:15;15;15;
45990;PMS5003;31721;41.740;-88.000;2023-07-08T14:21:46;14;13;
45990;PMS5003;31721;41.740;-88.000;2023-07-08T14:24:18;15;12;
45990;PMS5003;31721;41.740;-88.000;2023-07-08T14:26:46;16;14;
45990;PMS5003;31721;41.740;-88.000;2023-07-08T14:29:14;17;13;
45990;PMS5003;31721;41.740;-88.000;2023-07-08T14:31:42;19;19;
45990;PMS5003;31721;41.740;-88.000;2023-07-08T14:34:11;15;15;
45990;PMS5003;31721;41.740;-88.000;2023-07-08T14:36:49;14;12;
45990;PMS5003;31721;41.740;-88.000;2023-07-08T14:39:18;18;15;
45990;PMS5003;31721;41.740;-88.000;2023-07-08T14:41:47;18;16;
45990;PMS5003;31721;41.740;-88.000;2023-07-08T14:44:19;16;16;
45990;PMS5003;31721;41.740;-88.000;2023-07-08T14:46:49;14;14;
45990;PMS5003;31721;41.740;-88.000;2023-07-08T14:49:18;16;16;
45990;PMS5003;31721;41.740;-88.000;2023-07-08T14:51:48;18;17;
45990;PMS5003;31721;41.740;-88.000;2023-07-08T14:54:17;17;14;
45990;PMS5003;31721;41.740;-88.000;2023-07-08T14:56:45;17;15;
45990;PMS5003;31721;41.740;-88.000;2023-07-08T14:59:13;16;12;
45990;PMS5003;31721;41.740;-88.000;2023-07-08T15:01:44;18;16;
45990;PMS5003;31721;41.740;-88.000;2023-07-08T15:04:13;18;15;
45990;PMS5003;31721;41.740;-88.000;2023-07-08T15:06:42;23;23;
45990;PMS5003;31721;41.740;-88.000;2023-07-08T15:09:11;28;28;
45990;PMS5003;31721;41.740;-88.000;2023-07-08T15:11:39;28;25;
45990;PMS5003;31721;41.740;-88.000;2023-07-08T15:14:09;37;37;
45990;PMS5003;31721;41.740;-88.000;2023-07-08T15:16:42;26;26;
45990;PMS5003;31721;41.740;-88.000;2023-07-08T15:19:10;24;24;
45990;PMS5003;31721;41.740;-88.000;2023-07-08T15:21:38;18;17;
45990;PMS5003;31721;41.740;-88.000;2023-07-08T15:24:08;18;15;
45990;PMS5003;31721;41.740;-88.000;2023-07-08T15:26:38;15;15;
45990;PMS5003;31721;41.740;-88.000;2023-07-08T15:29:08;24;21;
45990;PMS5003;31721;41.740;-88.000;2023-07-08T15:31:41;13;13;
45990;PMS5003;31721;41.740;-88.000;2023-07-08T15:34:11;17;15;
45990;PMS5003;31721;41.740;-88.000;2023-07-08T15:36:41;16;15;
45990;PMS5003;31721;41.740;-88.000;2023-07-08T15:39:08;29;29;
45990;PMS5003;31721;41.740;-88.000;2023-07-08T15:41:37;25;25;
45990;PMS5003;31721;41.740;-88.000;2023-07-08T15:44:04;19;18;
45990;PMS5003;31721;41.740;-88.000;2023-07-08T15:46:45;24;24;
45990;PMS5003;31721;41.740;-88.000;2023-07-08T15:49:14;65;65;
45990;PMS5003;31721;41.740;-88.000;2023-07-08T15:51:43;28;26;
45990;PMS5003;31721;41.740;-88.000;2023-07-08T15:54:11;22;22;
45990;PMS5003;31721;41.740;-88.000;2023-07-08T15:56:40;19;19;
45990;PMS5003;31721;41.740;-88.000;2023-07-08T15:59:09;32;32;
45990;PMS5003;31721;41.740;-88.000;2023-07-08T16:01:40;63;63;
45990;PMS5003;31721;41.740;-88.000;2023-07-08T16:04:13;70;70;
45990;PMS5003;31721;41.740;-88.000;2023-07-08T16:06:49;89;88;